• Join FlightAware (Why Join?)
  • Login
  • US Flag 
06:08AM EDT


 

Airport Tracker/Info


-or-


 

Live Flight TrackerFlight Track Log ✈ GJS3706 ✈ 06-May-2013 ✈ KPWM - KORD

Flight Track Log - Related Links

Times and Time Zones

All times are in EDT time to prevent confusion due to time zone crossing. See the GJS3706 flight status page for this flight to view local times or setup timezone preferences in your user account.

Time Position Orientation Groundspeed Altitude Reporting Facility
EDT Latitude Longitude Course Direction KTS MPH feet Rate Location/Type
07:04AM 43.6622 -70.4283 243° Southwest 200 230 3,100  Level Boston Center
07:05AM 43.6700 -70.5169 277° West 236 272 5,200 2,400 Climbing Boston Center
07:06AM 43.6906 -70.6253 285° West 272 313 8,000 2,580 Climbing Boston Center
07:07AM 43.7067 -70.7225 283° West 286 329 10,400 2,040 Climbing Boston Center
07:08AM 43.7106 -70.8517 272° West 306 352 12,100 1,500 Climbing Boston Center
07:09AM 43.7238 -70.7084 264° West  Level FlightAware Approximate
07:09AM 43.6789 -70.9644 249° West 334 384 13,500  Level Boston Center
07:10AM 43.7049 -70.8480 243° Southwest  Level FlightAware Approximate
07:10AM 43.6453 -71.1089 252° West 355 409 15,600  Level Boston Center
07:11AM 43.6175 -71.2469 255° West 376 433 17,800 1,800 Climbing Boston Center
07:12AM 43.5939 -71.3853 257° West 381 438 19,200 1,440 Climbing Boston Center
07:13AM 43.5783 -71.5258 261° West 375 432 20,700 1,380 Climbing Boston Center
07:14AM 43.5692 -71.6778 265° West 386 444 22,000 1,080 Climbing Boston Center
07:15AM 43.5597 -71.8328 265° West 400 460 22,900 900 Climbing Boston Center
07:16AM 43.5500 -71.9847 265° West 428 493 23,900 960 Climbing Boston Center
07:17AM 43.5336 -72.1508 262° West 438 504 24,900 960 Climbing Boston Center
07:18AM 43.5236 -72.3197 265° West 443 510 25,900 1,020 Climbing Boston Center
07:19AM 43.5111 -72.4917 264° West 443 510 27,000 1,020 Climbing Boston Center
07:20AM 43.4964 -72.6633 263° West 443 510 28,000 960 Climbing Boston Center
07:21AM 43.4833 -72.8378 264° West 448 516 29,000 1,020 Climbing Boston Center
07:22AM 43.4658 -73.0236 263° West 453 521 30,100 960 Climbing Boston Center
07:23AM 43.4525 -73.1950 264° West 453 521 31,000 960 Climbing Boston Center
07:24AM 43.4367 -73.3636 263° West 453 521 32,100 960 Climbing Boston Center
07:25AM 43.4206 -73.5319 263° West 453 521 33,000 420 Climbing Boston Center
07:26AM 43.4064 -73.6975 263° West 447 514 33,000  Level Boston Center
07:27AM 43.3919 -73.8658 263° West 447 514 33,000  Level Boston Center
07:28AM 43.3772 -74.0339 263° West 442 509 33,000 360 Level Boston Center
07:29AM 43.3622 -74.2022 263° West 442 509 33,800 900 Climbing Boston Center
07:30AM 43.3492 -74.3644 264° West 442 509 34,900 900 Climbing Boston Center
07:31AM 43.3339 -74.5239 263° West 442 509 35,600 660 Climbing Boston Center
07:32AM 43.3203 -74.6861 263° West 437 503 36,300 660 Climbing Boston Center
07:33AM 43.3172 -74.8431 269° West 431 496 37,000 660 Climbing Boston Center
07:34AM 43.3136 -74.9997 268° West 418 481 37,700 480 Climbing Boston Center
07:35AM 43.3144 -75.1483 270° West 413 475 38,000 120 Climbing Boston Center
07:36AM 43.3103 -75.3192 268° West 418 481 38,000  Level Boston Center
07:37AM 43.3064 -75.4703 268° West 426 490 38,000  Level Boston Center
07:38AM 43.3019 -75.6300 268° West 426 490 38,000  Level Boston Center
07:39AM 43.2994 -75.7897 269° West 426 490 38,000  Level Boston Center
07:40AM 43.2947 -75.9519 268° West 421 484 38,000  Level Boston Center
07:42AM 43.2917 -76.1089 269° West 421 484 38,000  Level Boston Center
07:43AM 43.2817 -76.4222 268° West 406 467 38,000  Level Cleveland Center
07:44AM 43.2767 -76.5794 268° West 411 473 38,000  Level Cleveland Center
07:45AM 43.2717 -76.7394 268° West 417 480 38,000  Level Cleveland Center
07:47AM 43.2500 -77.0167 264° West 420 483 38,000  Level Toronto Center
07:48AM 43.2333 -77.1833 262° West 410 472 38,000  Level Toronto Center
07:49AM 43.2475 -77.3794 276° West 422 486 38,000  Level Cleveland Center
07:50AM 43.2414 -77.5394 267° West 422 486 38,000  Level Cleveland Center
07:51AM 43.2350 -77.6967 267° West 422 486 38,000  Level Cleveland Center
07:52AM 43.2283 -77.8564 267° West 422 486 38,000  Level Cleveland Center
07:53AM 43.2217 -78.0164 267° West 422 486 38,000  Level Cleveland Center
07:54AM 43.2147 -78.1733 267° West 422 486 38,000  Level Cleveland Center
07:56AM 43.2000 -78.4928 266° West 422 486 38,000  Level Cleveland Center
07:57AM 43.1919 -78.6383 266° West 429 494 38,000  Level Cleveland Center
07:58AM 43.1842 -78.7981 266° West 429 494 38,000  Level Cleveland Center
07:59AM 43.1667 -78.9500 261° West 420 483 38,000  Level Toronto Center
08:00AM 43.1500 -79.1000 261° West 420 483 38,000  Level Toronto Center
08:01AM 43.1500 -79.2500 270° West 420 483 38,000  Level Toronto Center
08:02AM 43.1333 -79.4000 261° West 420 483 38,000  Level Toronto Center
08:03AM 43.1333 -79.5667 270° West 410 472 38,000  Level Toronto Center
08:05AM 43.1218 -79.7659 266° West  Level FlightAware Approximate
08:05AM 43.1167 -79.8833 266° West 410 472 38,000  Level Toronto Center
08:06AM 43.1000 -80.0167 260° West 410 472 38,000  Level Toronto Center
08:07AM 43.1000 -80.2000 270° West 410 472 38,000  Level Toronto Center
08:08AM 43.0833 -80.3333 260° West 410 472 38,000  Level Toronto Center
08:09AM 43.0667 -80.5000 262° West 410 472 38,000  Level Toronto Center
08:10AM 43.0667 -80.6667 270° West 420 483 38,000  Level Toronto Center
08:12AM 43.0333 -80.9833 262° West 420 483 38,000  Level Toronto Center
08:13AM 43.0167 -81.1333 261° West 420 483 38,000  Level Toronto Center
08:14AM 43.0167 -81.3000 270° West 420 483 38,000  Level Toronto Center
08:15AM 43.0167 -81.4500 270° West 420 483 38,000  Level Toronto Center
08:16AM 43.0167 -81.6167 270° West 420 483 38,000  Level Toronto Center
08:18AM 43.0000 -81.9333 266° West 420 483 38,000  Level Toronto Center
08:19AM 43.0000 -82.1000 270° West 430 495 38,000  Level Toronto Center
08:20AM 43.0000 -82.2833 270° West 430 495 38,000  Level Toronto Center
08:21AM 43.0000 -82.4333 270° West 440 506 38,000  Level Toronto Center
08:23AM 43.0628 -82.6547 291° West 429 494 38,000  Level Cleveland Center
08:24AM 43.1167 -82.9167 286° West 450 518 38,000  Level Toronto Center
08:25AM 43.1272 -82.9811 283° West 444 511 38,000  Level Cleveland Center
08:26AM 43.0781 -83.1300 246° West 413 475 38,000  Level Cleveland Center
08:27AM 42.9922 -83.2428 224° Southwest 403 464 38,000  Level Cleveland Center
08:28AM 42.9061 -83.3639 226° Southwest 423 487 38,000 -480 Level Cleveland Center
08:29AM 42.8219 -83.4819 226° Southwest 436 502 37,100 -960 Descending Cleveland Center
08:30AM 42.7783 -83.6297 248° West 423 487 36,100 -1,020 Descending Cleveland Center
08:31AM 42.7822 -83.7969 272° West 426 490 35,100 -1,020 Descending Cleveland Center
08:32AM 42.8044 -83.9708 280° West 438 504 34,100 -1,020 Descending Cleveland Center
08:33AM 42.8333 -84.2500 278° West 460 529 32,400 -960 Descending Toronto Center
08:34AM 42.8558 -84.3481 287° West 466 536 32,000 -420 Descending Chicago Center
08:34AM 42.8667 -84.4333 280° West 470 541 32,000  Level Toronto Center
08:35AM 42.8769 -84.5222 279° West 468 539 32,000  Level Chicago Center
08:36AM 42.8725 -84.6992 268° West 469 540 32,000  Level Chicago Center
08:37AM 42.8525 -84.8778 261° West 476 548 32,000 -420 Level Chicago Center
08:39AM 42.8159 -85.1269 264° West  Level FlightAware Approximate
08:39AM 42.8111 -85.2700 264° West 476 548 30,700  Level Chicago Center
08:40AM 42.7922 -85.4478 262° West 475 547 28,000 -2,520 Descending Chicago Center
08:41AM 42.7647 -85.6178 258° West 463 533 25,600 -2,340 Descending Chicago Center
08:42AM 42.7358 -85.7811 257° West 446 513 23,200 -2,340 Descending Chicago Center
08:43AM 42.7072 -85.9372 256° West 428 493 20,800 -1,560 Descending Chicago Center
08:44AM 42.6797 -86.0864 256° West 409 471 20,000 -600 Descending Chicago Center
08:46AM 42.6273 -86.2910 251° West  Level FlightAware Approximate
08:46AM 42.6192 -86.4106 251° West 399 459 19,100  Level Chicago Center
08:47AM 42.5922 -86.5517 256° West 389 448 17,100 -1,980 Descending Chicago Center
08:48AM 42.5667 -86.6856 256° West 371 427 15,100 -1,980 Descending Chicago Center
08:50AM 42.5091 -86.8668 250° West  Level FlightAware Approximate
08:50AM 42.5008 -86.9489 250° West 373 429 11,100  Level Chicago Center
08:51AM 42.4675 -87.0719 250° West 353 406 10,000 -540 Descending Chicago Center
08:52AM 42.4328 -87.1914 249° West 344 396 10,000  Level Chicago Center
08:53AM 42.3928 -87.3381 250° West 347 399 10,000  Level Chicago Center
08:54AM 42.3572 -87.4681 250° West 350 403 10,000  Level Chicago Center
08:55AM 42.3050 -87.5697 235° Southwest 339 390 10,000 -660 Level Chicago Center
08:56AM 42.2411 -87.6381 218° Southwest 295 339 8,700 -1,440 Descending Chicago Center
08:58AM 42.1786 -87.7050 218° Southwest 290 334 7,100 -780 Descending Chicago Center
08:59AM 42.1000 -87.7833 216° Southwest 281 323 7,000 -60 Descending Chicago TRACON
09:02AM 42.0917 -88.0383 268° West 215 247 7,000 -120 Level Chicago Center
09:03AM 42.0914 -88.1139 270° West 207 238 6,700 -1,080 Descending Chicago Center
09:04AM 42.0667 -88.1833 244° Southwest 214 246 4,700 -1,560 Descending Chicago TRACON
09:05AM 42.0167 -88.1500 154° Southeast 191 220 3,400 -720 Descending Chicago TRACON
09:07AM 41.9833 -88.0439 113° Southeast 172 198 2,600 -540 Descending Chicago Center
09:08AM 41.9833 -87.9900 90° East 155 178 1,800 -780 Descending Chicago Center
09:09AM 41.9833 -87.9422 90° East 137 158 1,100 -720 Descending Chicago Center
09:11AM 41.9817 -87.9067 140° Southeast  Level Estimated
09:18AM 41.9817 -87.9067 140° Southeast  Level Estimated
09:19AM 41.9817 -87.9067 140° Southeast  Level Estimated
09:20AM 41.9817 -87.9067 140° Southeast  Level Estimated
09:21AM 41.9817 -87.9067 140° Southeast  Level Estimated